Aérodrome :
LOGIN :

S'inscrire | Disclaimer

   EN    FR    IT 

 










Légende :    VFR   VFR Marginal   IFR   IFR Intensif   IFR Très Intensif
Visi : 
Plafond : 
>= 8 km
>= 3000ft
5 à 8 km
1000 à 3000 ft
1500m à 5 km
500 à 1000 ft
800 à 1500m
200 à 500 ft
< 800m
< 200 ft
Symboles :   Orages  Brouillard  Fortes neiges  Fortes précipitations  Vent > 20 kt
SIGMETs :   Divers  Orages  Givrage  Turbulence  Onde Orograph.  Cendres Volcan.






- Altitude de l'aérodrome : 74 ft
- Code IATA : LRH


LFBH - La Rochelle Ile de Ré

DERNIER METAR :
  • 271500Z AUTO 30023KT 9999 BKN032 12/07 Q1011 NOSIG

METARs EXPIRÉS :
  • 271430Z AUTO 30024KT 9999 SCT026 BKN032 12/07 Q1010 NOSIG
  • 271400Z AUTO 30025KT 9999 OVC026 12/07 Q1009 BECMG 32015KT
  • 271330Z AUTO 31025KT 9999 BKN026 12/08 Q1009 BECMG 32015KT
  • 271300Z AUTO 31029G39KT 9999 BKN020 12/07 Q1008 TEMPO BKN014 BECMG 32015KT
  • 271230Z AUTO 30026KT 9000 BKN020 12/09 Q1007 TEMPO BKN014 BECMG 32015KT

TAF TAF LFBH
Valide du 27 à 12h jusqu'au 28 à 12h UTC


271100Z 2712/2812 30020G30KT 9999 SCT016 BKN030
TEMPO 2712/2714 30025G40KT BKN014
BECMG 2714/2717 32015KT
BECMG 2718/2721 27005KT
BECMG 2722/2801 18005KT
BECMG 2803/2805 BKN010
TEMPO 2805/2812 2000 -DZ BKN005
ATIS : +33 5 46 00 13 92



MET'MAP, la Météo Aéronautique d'un coup d'oeil ! - Copyright ORBIFLY Décembre 2007 - Disclaimer

ORBIFLY MET'MAP TEAM :

Programmation & Développement : Alexandra Zaïnal
Sur une idée originale de : Baudouin d'Aumeries
Assistance à la programmation : Marc-Olivier Méhu
Soutien technique & logistique : Manuel Goepfert

Contact : metmap@orbifly.com




SOURCES & CREDITS :

   NOAA